createdAt,value
2023-03-22T00:00:21.165Z,86.72
2023-03-22T00:02:26.248Z,86.64
2023-03-22T00:04:29.764Z,86.67
2023-03-22T00:06:33.298Z,86.55
2023-03-22T00:08:38.507Z,86.49
2023-03-22T00:10:43.054Z,86.41
2023-03-22T00:12:46.694Z,86.36
2023-03-22T00:14:49.905Z,86.08
2023-03-22T00:16:53.158Z,86.17
2023-03-22T00:18:56.418Z,85.96
2023-03-22T00:21:00.795Z,85.99
2023-03-22T00:23:04.040Z,85.83
2023-03-22T00:25:09.497Z,85.74
2023-03-22T00:27:12.844Z,85.70
2023-03-22T00:29:17.592Z,85.62
2023-03-22T00:31:21.031Z,85.67
2023-03-22T00:33:24.952Z,85.59
2023-03-22T00:35:28.335Z,85.47
2023-03-22T00:37:38.714Z,85.46
2023-03-22T00:39:42.004Z,85.31
2023-03-22T00:41:46.739Z,85.36
2023-03-22T00:43:51.223Z,85.27
2023-03-22T00:45:54.454Z,85.21
2023-03-22T00:47:57.726Z,85.25
2023-03-22T00:50:01.194Z,85.46
2023-03-22T00:52:04.682Z,85.66
2023-03-22T00:54:08.104Z,85.78
2023-03-22T00:56:14.020Z,85.63
2023-03-22T00:58:28.830Z,85.65
2023-03-22T01:00:33.657Z,85.75
2023-03-22T01:02:37.010Z,85.79
2023-03-22T01:04:40.320Z,85.67
2023-03-22T01:06:43.541Z,85.67
2023-03-22T01:08:46.743Z,85.70
2023-03-22T01:10:53.123Z,85.59
2023-03-22T01:12:56.873Z,85.58
2023-03-22T01:15:01.588Z,85.52
2023-03-22T01:17:05.432Z,85.38
2023-03-22T01:19:08.639Z,85.55
2023-03-22T01:21:12.235Z,85.45
2023-03-22T01:23:15.983Z,85.37
2023-03-22T01:25:19.570Z,85.34
2023-03-22T01:27:22.767Z,85.14
2023-03-22T01:29:26.960Z,85.09
2023-03-22T01:31:31.942Z,85.19
2023-03-22T01:33:35.475Z,85.14
2023-03-22T01:35:39.028Z,85.16
2023-03-22T01:37:43.127Z,84.86
2023-03-22T01:39:46.694Z,84.91
2023-03-22T01:41:52.352Z,84.96
2023-03-22T01:44:09.582Z,84.85
2023-03-22T01:46:13.343Z,84.92
2023-03-22T01:48:25.955Z,84.84
2023-03-22T01:50:29.974Z,84.83
2023-03-22T01:52:33.454Z,84.79
2023-03-22T01:54:44.990Z,84.68
2023-03-22T01:57:11.420Z,84.57
2023-03-22T01:59:17.588Z,84.62
2023-03-22T02:01:36.214Z,84.51
2023-03-22T02:03:49.497Z,84.47
2023-03-22T02:05:53.846Z,84.33
2023-03-22T02:07:59.470Z,84.27
2023-03-22T02:10:06.146Z,84.43
2023-03-22T02:12:28.958Z,84.31
2023-03-22T02:14:55.973Z,84.32
2023-03-22T02:17:34.855Z,84.28
2023-03-22T02:20:29.326Z,84.18
2023-03-22T02:23:08.761Z,84.00
2023-03-22T02:25:34.088Z,84.06
2023-03-22T02:28:13.764Z,84.01
2023-03-22T02:30:39.986Z,84.01
2023-03-22T02:33:03.415Z,84.20
2023-03-22T02:35:38.710Z,84.11
2023-03-22T02:38:01.556Z,84.15
2023-03-22T02:40:12.787Z,84.09
2023-03-22T02:42:28.479Z,84.04
2023-03-22T02:44:42.744Z,84.03
2023-03-22T02:46:49.208Z,84.00
2023-03-22T02:49:01.471Z,83.91
2023-03-22T02:51:09.480Z,83.83
2023-03-22T02:53:18.965Z,83.92
2023-03-22T02:55:28.170Z,83.92
2023-03-22T02:57:37.950Z,83.89
2023-03-22T02:59:43.507Z,83.83
2023-03-22T03:01:50.911Z,83.85
2023-03-22T03:03:57.709Z,83.79
2023-03-22T03:06:06.153Z,83.73
2023-03-22T03:08:13.351Z,83.68
2023-03-22T03:10:20.351Z,83.63
2023-03-22T03:12:27.031Z,83.42
2023-03-22T03:14:33.702Z,83.43
2023-03-22T03:16:37.266Z,83.44
2023-03-22T03:18:45.817Z,83.39
2023-03-22T03:21:02.456Z,83.23
2023-03-22T03:23:17.648Z,83.22
2023-03-22T03:25:29.247Z,83.28
2023-03-22T03:27:38.330Z,83.03
2023-03-22T03:29:45.948Z,82.97
2023-03-22T03:31:54.759Z,82.85
2023-03-22T03:34:06.600Z,82.86
2023-03-22T03:36:12.482Z,82.78
2023-03-22T03:38:19.395Z,82.74
2023-03-22T03:40:27.319Z,82.72
2023-03-22T03:42:31.698Z,82.76
2023-03-22T03:44:38.615Z,82.58
2023-03-22T03:46:42.825Z,82.66
2023-03-22T03:48:50.797Z,82.56
2023-03-22T03:50:55.420Z,82.56
2023-03-22T03:52:58.813Z,82.58
2023-03-22T03:55:02.096Z,82.71
2023-03-22T03:57:08.921Z,82.62
2023-03-22T03:59:15.868Z,82.71
2023-03-22T04:01:21.520Z,82.52
2023-03-22T04:03:32.477Z,82.57
2023-03-22T04:05:47.769Z,82.62
2023-03-22T04:07:51.135Z,82.59
2023-03-22T04:09:54.842Z,82.56
2023-03-22T04:12:03.499Z,82.55
2023-03-22T04:14:06.937Z,82.43
2023-03-22T04:16:11.031Z,82.41
2023-03-22T04:18:15.933Z,82.35
2023-03-22T04:20:19.617Z,82.34
2023-03-22T04:22:23.710Z,82.26
2023-03-22T04:24:27.434Z,82.19
2023-03-22T04:26:30.824Z,82.25
2023-03-22T04:28:52.169Z,82.12
2023-03-22T04:30:57.899Z,82.22
2023-03-22T04:33:23.007Z,82.13
2023-03-22T04:35:46.279Z,82.08
2023-03-22T04:37:50.070Z,82.13
2023-03-22T04:39:56.039Z,82.02
2023-03-22T04:42:10.382Z,81.94
2023-03-22T04:44:14.358Z,82.03
2023-03-22T04:46:25.465Z,81.82
2023-03-22T04:48:41.364Z,81.90
2023-03-22T04:50:46.632Z,81.98
2023-03-22T04:52:50.323Z,81.83
2023-03-22T04:54:53.777Z,81.87
2023-03-22T04:56:56.986Z,81.99
2023-03-22T04:59:02.677Z,81.84
2023-03-22T05:01:06.257Z,81.90
2023-03-22T05:03:09.832Z,81.81
2023-03-22T05:05:18.906Z,81.88
2023-03-22T05:07:23.725Z,81.88
2023-03-22T05:09:31.102Z,81.87
2023-03-22T05:11:34.841Z,81.91
2023-03-22T05:14:01.032Z,82.02
2023-03-22T05:16:05.622Z,81.95
2023-03-22T05:18:20.832Z,81.98
2023-03-22T05:20:25.564Z,81.85
2023-03-22T05:22:50.782Z,81.72
2023-03-22T05:24:55.713Z,81.69
2023-03-22T05:27:03.798Z,81.56
2023-03-22T05:29:08.114Z,81.62
2023-03-22T05:31:34.567Z,81.62
2023-03-22T05:33:39.292Z,81.58
2023-03-22T05:35:49.905Z,81.51
2023-03-22T05:37:53.693Z,81.51
2023-03-22T05:39:58.008Z,81.32
2023-03-22T05:42:11.889Z,81.38
2023-03-22T05:44:15.150Z,81.43
2023-03-22T05:46:28.088Z,81.42
2023-03-22T05:48:54.431Z,81.25
2023-03-22T05:51:00.633Z,81.11
2023-03-22T05:53:06.481Z,81.03
2023-03-22T05:55:20.533Z,81.10
2023-03-22T05:57:25.384Z,80.87
2023-03-22T05:59:28.730Z,80.93
2023-03-22T06:01:33.515Z,80.87
2023-03-22T06:03:58.938Z,80.82
2023-03-22T06:06:13.841Z,80.78
2023-03-22T06:08:26.539Z,80.75
2023-03-22T06:10:30.545Z,80.73
2023-03-22T06:12:34.168Z,80.61
2023-03-22T06:14:49.142Z,80.77
2023-03-22T06:17:10.800Z,80.57
2023-03-22T06:19:13.994Z,80.45
2023-03-22T06:21:18.573Z,80.42
2023-03-22T06:23:22.267Z,80.32
2023-03-22T06:25:25.516Z,80.42
2023-03-22T06:27:28.967Z,80.13
2023-03-22T06:29:32.408Z,80.07
2023-03-22T06:31:38.407Z,79.87
2023-03-22T06:33:45.485Z,79.73
2023-03-22T06:36:01.957Z,79.50
2023-03-22T06:38:16.500Z,79.21
2023-03-22T06:40:20.780Z,79.02
2023-03-22T06:42:24.002Z,79.06
2023-03-22T06:44:36.654Z,78.69
2023-03-22T06:47:12.104Z,78.53
2023-03-22T06:49:33.550Z,78.43
2023-03-22T06:51:36.741Z,78.18
2023-03-22T06:53:41.907Z,78.07
2023-03-22T06:55:45.413Z,77.84
2023-03-22T06:57:54.419Z,77.40
2023-03-22T06:59:57.745Z,77.43
2023-03-22T07:02:01.244Z,77.43
2023-03-22T07:04:04.825Z,77.20
2023-03-22T07:06:09.977Z,77.10
2023-03-22T07:08:17.176Z,77.06
2023-03-22T07:10:28.661Z,76.81
2023-03-22T07:12:32.795Z,76.80
2023-03-22T07:14:41.399Z,76.75
2023-03-22T07:17:04.847Z,76.57
2023-03-22T07:19:08.234Z,76.37
2023-03-22T07:21:12.946Z,76.36
2023-03-22T07:23:18.489Z,76.02
2023-03-22T07:25:27.914Z,76.04
2023-03-22T07:27:40.630Z,75.74
2023-03-22T07:29:44.315Z,75.54
2023-03-22T07:31:48.012Z,75.44
2023-03-22T07:34:20.344Z,75.52
2023-03-22T07:36:48.062Z,75.38
2023-03-22T07:38:52.196Z,75.30
2023-03-22T07:41:03.268Z,75.34
2023-03-22T07:43:22.939Z,75.38
2023-03-22T07:45:40.967Z,75.29
2023-03-22T07:48:13.114Z,75.08
2023-03-22T07:50:31.613Z,74.85
2023-03-22T07:52:37.157Z,74.74
2023-03-22T07:54:40.770Z,74.51
2023-03-22T07:56:48.071Z,74.35
2023-03-22T07:58:51.598Z,74.40
2023-03-22T08:00:55.060Z,74.10
2023-03-22T08:03:18.641Z,74.18
2023-03-22T08:05:40.768Z,74.08
2023-03-22T08:07:44.880Z,74.18
2023-03-22T08:09:50.929Z,74.12
2023-03-22T08:11:55.555Z,74.17
2023-03-22T08:13:59.545Z,74.14
2023-03-22T08:16:03.138Z,73.99
2023-03-22T08:18:08.780Z,73.90
2023-03-22T08:20:18.414Z,73.73
2023-03-22T08:22:29.980Z,73.76
2023-03-22T08:24:51.995Z,73.76
2023-03-22T08:27:04.508Z,73.80
2023-03-22T08:29:23.708Z,73.58
2023-03-22T08:31:27.226Z,73.50
2023-03-22T08:33:30.523Z,73.67
2023-03-22T08:35:33.794Z,73.64
2023-03-22T08:37:37.117Z,73.33
2023-03-22T08:39:42.114Z,73.65
2023-03-22T08:41:56.283Z,73.73
2023-03-22T08:44:03.350Z,73.24
2023-03-22T08:46:07.738Z,72.91
2023-03-22T08:48:11.185Z,72.24
2023-03-22T08:50:35.312Z,71.76
2023-03-22T08:52:53.798Z,71.69
2023-03-22T08:55:04.858Z,71.34
2023-03-22T08:57:40.400Z,70.86
2023-03-22T09:00:10.946Z,71.00
2023-03-22T09:02:27.622Z,70.26
2023-03-22T09:04:32.704Z,70.06
2023-03-22T09:06:37.537Z,69.93
2023-03-22T09:08:41.349Z,69.65
2023-03-22T09:10:52.303Z,69.06
2023-03-22T09:12:58.071Z,68.68
2023-03-22T09:15:01.410Z,68.51
2023-03-22T09:17:08.438Z,68.14
2023-03-22T09:19:11.781Z,67.72
2023-03-22T09:21:17.008Z,67.68
2023-03-22T09:23:30.425Z,67.22
2023-03-22T09:25:33.960Z,66.71
2023-03-22T09:27:37.403Z,66.61
2023-03-22T09:29:40.699Z,66.03
2023-03-22T09:31:49.703Z,66.56
2023-03-22T09:33:58.361Z,66.31
2023-03-22T09:36:02.440Z,65.90
2023-03-22T09:38:08.174Z,65.93
2023-03-22T09:40:13.725Z,65.91
2023-03-22T09:42:27.618Z,65.75
2023-03-22T09:44:35.282Z,65.83
2023-03-22T09:46:42.133Z,65.54
2023-03-22T09:48:48.397Z,65.55
2023-03-22T09:50:55.422Z,65.39
2023-03-22T09:52:59.702Z,65.20
2023-03-22T09:55:03.238Z,65.22
2023-03-22T09:57:12.280Z,64.49
2023-03-22T09:59:23.296Z,64.86
2023-03-22T10:01:37.473Z,64.44
2023-03-22T10:04:13.845Z,64.34
2023-03-22T10:06:21.774Z,64.24
2023-03-22T10:08:42.251Z,63.36
2023-03-22T10:10:45.671Z,63.37
2023-03-22T10:12:55.241Z,63.05
2023-03-22T10:15:06.846Z,63.06
2023-03-22T10:17:13.354Z,62.90
2023-03-22T10:19:24.423Z,62.85
2023-03-22T10:21:29.471Z,62.85
2023-03-22T10:23:39.179Z,63.02
2023-03-22T10:25:44.171Z,63.30
2023-03-22T10:27:50.740Z,62.74
2023-03-22T10:30:00.753Z,62.94
2023-03-22T10:32:16.087Z,63.23
2023-03-22T10:34:23.122Z,63.14
2023-03-22T10:36:34.814Z,62.93
2023-03-22T10:38:44.800Z,61.95
2023-03-22T10:40:50.587Z,61.49
2023-03-22T10:42:57.368Z,61.37
2023-03-22T10:45:03.661Z,61.17
2023-03-22T10:47:11.006Z,60.56
2023-03-22T10:49:20.073Z,60.37
2023-03-22T10:51:29.195Z,60.75
2023-03-22T10:53:39.552Z,60.48
2023-03-22T10:55:44.007Z,60.37
2023-03-22T10:57:57.620Z,60.19
2023-03-22T11:00:01.089Z,60.41
2023-03-22T11:02:04.554Z,60.43
2023-03-22T11:04:11.462Z,60.26
2023-03-22T11:06:17.453Z,59.85
2023-03-22T11:08:20.802Z,59.90
2023-03-22T11:10:32.743Z,59.47
2023-03-22T11:12:39.012Z,59.90
2023-03-22T11:14:44.898Z,59.22
2023-03-22T11:16:54.571Z,59.05
2023-03-22T11:18:59.630Z,57.83
2023-03-22T11:21:08.206Z,58.14
2023-03-22T11:23:14.657Z,57.92
2023-03-22T11:25:22.495Z,58.01
2023-03-22T11:27:29.390Z,57.91
2023-03-22T11:29:41.776Z,58.01
2023-03-22T11:32:02.888Z,57.77
2023-03-22T11:34:18.382Z,57.36
2023-03-22T11:36:21.848Z,57.27
2023-03-22T11:38:30.869Z,57.50
2023-03-22T11:40:36.792Z,57.41
2023-03-22T11:42:41.572Z,57.64
2023-03-22T11:44:45.837Z,57.75
2023-03-22T11:46:55.720Z,57.50
2023-03-22T11:49:01.811Z,57.45
2023-03-22T11:51:09.604Z,56.53
2023-03-22T11:53:16.607Z,56.67
2023-03-22T11:55:20.705Z,56.48
2023-03-22T11:57:27.141Z,56.67
2023-03-22T11:59:37.825Z,56.93
2023-03-22T12:01:48.240Z,56.96
2023-03-22T12:03:56.778Z,57.14
2023-03-22T12:06:04.705Z,56.98
2023-03-22T12:08:17.999Z,56.56
2023-03-22T12:10:27.873Z,56.56
2023-03-22T12:12:34.573Z,56.77
2023-03-22T12:14:45.909Z,56.87
2023-03-22T12:16:50.887Z,57.08
2023-03-22T12:19:05.951Z,56.77
2023-03-22T12:21:11.356Z,56.47
2023-03-22T12:23:17.214Z,56.60
2023-03-22T12:25:24.448Z,56.57
2023-03-22T12:27:34.333Z,55.84
2023-03-22T12:29:43.954Z,56.35
2023-03-22T12:31:57.373Z,56.55
2023-03-22T12:34:04.394Z,56.53
2023-03-22T12:36:09.022Z,56.92
2023-03-22T12:38:25.161Z,56.98
2023-03-22T12:40:30.295Z,57.48
2023-03-22T12:42:47.901Z,57.43
2023-03-22T12:45:05.113Z,57.11
2023-03-22T12:47:16.899Z,57.25
2023-03-22T12:49:28.860Z,56.94
2023-03-22T12:51:32.129Z,57.26
2023-03-22T12:53:42.464Z,57.05
2023-03-22T12:55:48.404Z,57.80
2023-03-22T12:57:54.542Z,57.82
2023-03-22T13:00:10.176Z,59.02
2023-03-22T13:02:18.050Z,59.76
2023-03-22T13:04:33.554Z,60.10
2023-03-22T13:06:57.504Z,60.86
2023-03-22T13:09:19.080Z,61.29
2023-03-22T13:11:25.331Z,61.80
2023-03-22T13:13:49.322Z,62.64
2023-03-22T13:16:03.124Z,63.18
2023-03-22T13:18:06.468Z,63.72
2023-03-22T13:20:28.112Z,63.78
2023-03-22T13:22:51.158Z,64.45
2023-03-22T13:25:29.060Z,65.25
2023-03-22T13:27:41.839Z,65.40
2023-03-22T13:29:54.001Z,65.90
2023-03-22T13:32:00.013Z,66.18
2023-03-22T13:34:04.106Z,66.71
2023-03-22T13:36:25.041Z,67.01
2023-03-22T13:38:30.509Z,67.03
2023-03-22T13:40:39.637Z,67.54
2023-03-22T13:42:43.470Z,67.35
2023-03-22T13:44:53.040Z,67.59
2023-03-22T13:47:01.191Z,67.58
2023-03-22T13:49:27.989Z,67.93
2023-03-22T13:51:33.535Z,67.59
2023-03-22T13:53:37.774Z,67.67
2023-03-22T13:56:00.928Z,67.51
2023-03-22T13:58:05.595Z,67.81
2023-03-22T14:00:22.588Z,67.67
2023-03-22T14:02:30.086Z,67.19
2023-03-22T14:04:40.637Z,66.80
2023-03-22T14:06:51.207Z,66.97
2023-03-22T14:08:59.692Z,66.80
2023-03-22T14:11:18.141Z,66.69
2023-03-22T14:13:30.572Z,66.71
2023-03-22T14:15:38.566Z,66.39
2023-03-22T14:17:45.269Z,66.31
2023-03-22T14:19:50.891Z,66.04
